Time;durP1;ratioP1;P1;durP2;ratioP2;P2;SDS_P1;SDS_P2;PMS_P1;PMS_P2;Temp;Humidity;BMP_temperature;BMP_pressure;BME280_temperature;BME280_humidity;BME280_pressure;Samples;Min_cycle;Max_cycle;Signal;HPM_P1;HPM_P2
2021/09/02 00:01:01;;;;;;;37.85;18.50;;;;;;;21.39;68.19;100394.81;5044267;28;20076;-62
2021/09/02 00:03:28;;;;;;;35.75;20.65;;;;;;;21.53;68.17;100414.31;5036582;28;20096;-60
2021/09/02 00:05:54;;;;;;;39.55;18.58;;;;;;;21.55;68.00;100414.81;5066846;28;20123;-61
2021/09/02 00:08:21;;;;;;;35.65;18.38;;;;;;;21.55;68.33;100419.66;5032408;28;20089;-61
2021/09/02 00:10:48;;;;;;;41.13;17.35;;;;;;;21.54;68.13;100421.69;5034540;28;20506;-61
2021/09/02 00:13:15;;;;;;;31.98;17.05;;;;;;;21.42;68.25;100399.78;5044211;28;20121;-60
2021/09/02 00:15:42;;;;;;;30.08;17.23;;;;;;;21.47;68.43;100413.78;5044823;28;20440;-60
2021/09/02 00:18:09;;;;;;;36.97;17.27;;;;;;;21.46;68.35;100412.09;5039896;28;20045;-60
2021/09/02 00:20:36;;;;;;;33.92;17.27;;;;;;;21.48;68.35;100426.78;5035255;28;20413;-61
2021/09/02 00:23:02;;;;;;;31.50;16.23;;;;;;;21.48;68.23;100421.09;5037571;28;20129;-62
2021/09/02 00:25:30;;;;;;;34.28;17.75;;;;;;;21.46;68.53;100417.78;5039553;28;20597;-63
2021/09/02 00:27:56;;;;;;;27.65;16.30;;;;;;;21.43;68.37;100411.97;5048207;28;20072;-60
2021/09/02 00:30:23;;;;;;;32.80;17.92;;;;;;;21.54;68.71;100407.47;5042658;28;20092;-58
2021/09/02 00:32:50;;;;;;;37.00;19.05;;;;;;;21.60;68.74;100405.19;5047011;28;20132;-59
2021/09/02 00:35:17;;;;;;;37.40;17.45;;;;;;;21.66;68.88;100406.63;5033500;28;20191;-59
2021/09/02 00:37:44;;;;;;;30.45;17.10;;;;;;;21.72;68.57;100403.16;5032393;28;20137;-58
2021/09/02 00:40:11;;;;;;;31.17;15.85;;;;;;;21.74;68.80;100389.44;5045318;28;20046;-58
2021/09/02 00:42:38;;;;;;;29.50;17.27;;;;;;;21.86;68.61;100404.78;5040643;28;20069;-61
2021/09/02 00:45:05;;;;;;;32.50;17.77;;;;;;;21.88;68.56;100393.84;5040835;28;20147;-61
2021/09/02 00:47:33;;;;;;;38.83;18.05;;;;;;;21.92;68.03;100409.84;5030044;28;20509;-61
2021/09/02 00:50:00;;;;;;;25.25;16.25;;;;;;;21.62;68.42;100351.69;5038271;28;20143;-61
2021/09/02 00:52:29;;;;;;;28.80;16.23;;;;;;;21.83;68.24;100391.28;5040699;28;20100;-61
2021/09/02 00:54:59;;;;;;;30.83;15.55;;;;;;;21.81;68.21;100383.09;5032004;28;20083;-61
2021/09/02 00:57:29;;;;;;;29.65;15.90;;;;;;;21.80;68.16;100381.47;5034399;28;20474;-62
2021/09/02 00:59:58;;;;;;;;;;;;;;;21.80;67.95;100387.13;5039148;28;20541;-59
2021/09/02 01:02:26;;;;;;;34.72;15.77;;;;;;;21.79;68.15;100390.34;5032419;28;19921;-59
2021/09/02 01:04:56;;;;;;;33.00;16.38;;;;;;;21.75;68.18;100390.25;5036217;28;20042;-59
2021/09/02 01:07:24;;;;;;;31.88;16.02;;;;;;;21.66;68.11;100378.19;5040228;28;20041;-60
2021/09/02 01:09:53;;;;;;;30.15;14.77;;;;;;;21.61;68.16;100376.44;5041328;28;20080;-60
2021/09/02 01:12:40;;;;;;;31.10;16.87;;;;;;;21.61;67.86;100375.63;5043220;28;20133;-61
2021/09/02 01:15:11;;;;;;;33.42;15.73;;;;;;;21.52;68.02;100367.22;5038122;28;20076;-61
2021/09/02 01:17:43;;;;;;;29.38;15.30;;;;;;;21.54;67.85;100376.22;5032475;28;20120;-61
2021/09/02 01:20:12;;;;;;;32.63;16.83;;;;;;;21.60;68.04;100383.28;5043184;28;20080;-61
2021/09/02 01:22:41;;;;;;;37.65;16.38;;;;;;;21.55;68.44;100368.53;5037417;28;20144;-61
2021/09/02 01:25:09;;;;;;;34.25;16.05;;;;;;;;;;5029482;28;20069;-61
2021/09/02 01:27:36;;;;;;;25.17;15.07;;;;;;;21.52;68.67;100348.16;5032050;28;20132;-64
2021/09/02 01:30:09;;;;;;;29.73;15.68;;;;;;;21.44;68.73;100329.25;5046166;28;20143;-65
2021/09/02 01:32:38;;;;;;;29.45;14.93;;;;;;;21.55;68.76;100338.09;5041897;28;20497;-65
2021/09/02 01:35:08;;;;;;;34.65;15.55;;;;;;;21.59;68.92;100350.38;5048712;28;20090;-64
2021/09/02 01:37:46;;;;;;;32.05;15.15;;;;;;;21.56;68.69;100341.75;5037494;28;20124;-64
2021/09/02 01:40:19;;;;;;;34.30;16.02;;;;;;;21.64;68.81;100341.63;5040606;28;20052;-64
2021/09/02 01:42:47;;;;;;;31.48;15.55;;;;;;;21.69;68.97;100352.72;5047675;28;20045;-61
2021/09/02 01:45:14;;;;;;;32.13;15.98;;;;;;;21.76;69.10;100352.09;5044865;28;20079;-62
2021/09/02 01:47:42;;;;;;;27.70;15.13;;;;;;;21.82;68.85;100344.97;5047855;28;20135;-65
2021/09/02 01:50:13;;;;;;;28.02;16.27;;;;;;;21.84;68.38;100342.59;5035315;28;20502;-66
2021/09/02 01:52:40;;;;;;;33.10;16.63;;;;;;;21.57;68.67;100297.94;5051604;28;20080;-65
2021/09/02 01:55:08;;;;;;;28.13;15.25;;;;;;;21.93;68.56;100337.56;5049265;28;20076;-65
2021/09/02 01:57:35;;;;;;;33.90;17.05;;;;;;;21.89;68.74;100345.19;5040661;28;20137;-65
2021/09/02 02:00:08;;;;;;;33.78;15.65;;;;;;;21.90;68.76;100346.81;5033758;28;20457;-66
2021/09/02 02:02:35;;;;;;;35.45;14.45;;;;;;;21.89;68.61;100356.56;5041503;28;20184;-66
2021/09/02 02:05:02;;;;;;;34.17;14.52;;;;;;;21.87;68.61;100347.56;5048993;28;20115;-66
2021/09/02 02:07:30;;;;;;;31.25;14.65;;;;;;;21.82;68.71;100344.97;5043092;28;20511;-64
2021/09/02 02:09:56;;;;;;;22.88;11.63;;;;;;;21.67;68.56;100325.84;5048121;28;20080;-63
2021/09/02 02:12:23;;;;;;;25.52;11.45;;;;;;;21.73;68.61;100336.59;5042290;28;20068;-63
2021/09/02 02:14:50;;;;;;;29.08;13.25;;;;;;;21.80;68.68;100353.03;5042226;28;20132;-63
2021/09/02 02:17:17;;;;;;;28.27;12.63;;;;;;;21.83;68.95;100346.63;5047378;28;20453;-63
2021/09/02 02:19:44;;;;;;;26.80;11.40;;;;;;;21.91;68.68;100342.78;5038561;28;20120;-62
2021/09/02 02:22:10;;;;;;;26.65;12.75;;;;;;;21.93;68.48;100346.09;5046620;28;20137;-64
2021/09/02 02:24:37;;;;;;;22.05;12.30;;;;;;;21.73;68.64;100308.19;5034427;28;20485;-65
2021/09/02 02:27:04;;;;;;;21.70;10.60;;;;;;;21.95;68.22;100338.06;5034212;28;20132;-60
2021/09/02 02:29:31;;;;;;;22.38;10.50;;;;;;;21.89;68.33;100345.19;5046071;28;20080;-61
2021/09/02 02:31:58;;;;;;;21.75;9.38;;;;;;;21.92;68.31;100343.63;5038584;28;20120;-60
2021/09/02 02:34:25;;;;;;;18.75;9.48;;;;;;;21.91;68.29;100357.00;5035799;28;20124;-60
2021/09/02 02:36:52;;;;;;;19.58;10.55;;;;;;;21.82;68.47;100350.66;5032685;28;20703;-61
2021/09/02 02:39:18;;;;;;;28.48;12.60;;;;;;;21.83;67.99;100340.13;5038729;28;20076;-61
2021/09/02 02:41:45;;;;;;;23.02;13.63;;;;;;;21.81;68.13;100342.47;5033064;28;20141;-61
2021/09/02 02:44:12;;;;;;;28.23;13.27;;;;;;;21.79;68.27;100345.69;5039284;28;20128;-63
2021/09/02 02:46:39;;;;;;;25.58;14.50;;;;;;;21.75;67.97;100339.91;5043406;28;20132;-64
2021/09/02 02:49:06;;;;;;;29.98;15.57;;;;;;;21.72;68.46;100334.94;5052318;28;20067;-62
2021/09/02 02:51:35;;;;;;;31.02;15.60;;;;;;;21.34;68.18;100283.44;5046340;28;20080;-62
2021/09/02 02:54:02;;;;;;;26.92;14.13;;;;;;;21.38;68.25;100296.59;5033330;28;20446;-62
2021/09/02 02:56:29;;;;;;;27.90;15.43;;;;;;;21.47;68.54;100317.16;5041422;28;20077;-61
2021/09/02 02:58:56;;;;;;;22.27;13.88;;;;;;;21.53;68.08;100344.13;5033293;28;20145;-61
2021/09/02 03:01:23;;;;;;;32.53;16.88;;;;;;;21.51;68.70;100340.00;5034158;28;20075;-62
2021/09/02 03:03:50;;;;;;;32.35;17.05;;;;;;;21.46;68.51;100338.22;5045931;28;20049;-62
2021/09/02 03:06:17;;;;;;;30.15;16.83;;;;;;;21.50;68.64;100353.38;5052085;28;20041;-62
2021/09/02 03:08:45;;;;;;;34.78;17.08;;;;;;;21.39;68.20;100332.31;5035844;28;20049;-62
2021/09/02 03:11:12;;;;;;;30.08;15.85;;;;;;;21.44;68.48;100334.94;5044314;28;20472;-62
2021/09/02 03:13:40;;;;;;;32.13;14.23;;;;;;;21.51;68.19;100349.34;5045854;28;20077;-62
2021/09/02 03:16:07;;;;;;;31.90;17.00;;;;;;;21.53;68.16;100349.81;5041977;28;20136;-61
2021/09/02 03:18:35;;;;;;;36.88;16.58;;;;;;;21.49;68.39;100343.19;5040263;28;20057;-61
2021/09/02 03:21:02;;;;;;;31.73;15.57;;;;;;;21.52;68.35;100353.84;5040564;28;20132;-61
2021/09/02 03:23:29;;;;;;;25.40;14.40;;;;;;;21.47;68.27;100356.09;5048402;28;20143;-61
2021/09/02 03:25:55;;;;;;;28.60;14.43;;;;;;;21.40;68.30;100356.72;5045231;28;20131;-61
2021/09/02 03:28:22;;;;;;;31.73;16.83;;;;;;;21.43;68.58;100361.66;5034312;28;20573;-62
2021/09/02 03:30:49;;;;;;;32.33;17.23;;;;;;;21.35;68.56;100354.13;5034293;28;20140;-62
2021/09/02 03:33:16;;;;;;;29.80;16.10;;;;;;;21.32;68.61;100346.28;5037795;28;20133;-61
2021/09/02 03:35:43;;;;;;;31.23;15.73;;;;;;;21.17;68.71;100335.69;5039618;28;20128;-61
2021/09/02 03:38:10;;;;;;;25.45;14.27;;;;;;;21.24;68.98;100358.63;5053339;28;20091;-61
2021/09/02 03:40:37;;;;;;;28.08;14.60;;;;;;;21.16;68.88;100343.38;5052609;28;20473;-61
2021/09/02 03:43:04;;;;;;;27.35;14.43;;;;;;;21.13;68.82;100346.94;5035151;28;20052;-62
2021/09/02 03:45:31;;;;;;;27.73;14.35;;;;;;;21.18;68.76;100351.53;5034939;28;20171;-61
2021/09/02 03:47:58;;;;;;;25.05;14.80;;;;;;;21.12;68.68;100335.91;5034455;28;20057;-62
2021/09/02 03:50:25;;;;;;;23.38;13.10;;;;;;;21.38;68.47;100353.41;5033954;28;21994;-61
2021/09/02 03:52:52;;;;;;;27.40;12.10;;;;;;;21.39;68.29;100360.72;5039342;28;20501;-62
2021/09/02 03:55:18;;;;;;;26.10;12.55;;;;;;;21.40;68.15;100355.88;5048428;28;20057;-61
2021/09/02 03:57:45;;;;;;;19.67;10.68;;;;;;;21.33;67.91;100355.63;5033164;28;20954;-61
2021/09/02 04:00:13;;;;;;;20.42;11.50;;;;;;;21.25;68.06;100346.88;5032186;28;20212;-61
2021/09/02 04:02:40;;;;;;;21.77;9.68;;;;;;;21.19;68.27;100353.16;5035265;28;20552;-61
2021/09/02 04:05:09;;;;;;;14.75;9.65;;;;;;;21.17;68.28;100353.53;5039346;28;20439;-62
2021/09/02 04:07:36;;;;;;;16.50;9.52;;;;;;;21.21;68.20;100353.66;5041772;28;20087;-60
2021/09/02 04:10:04;;;;;;;17.30;8.52;;;;;;;21.25;67.92;100354.59;5042828;28;20102;-61
2021/09/02 04:12:32;;;;;;;17.88;8.88;;;;;;;21.32;67.88;100351.97;5036303;28;20465;-59
2021/09/02 04:14:59;;;;;;;16.17;7.32;;;;;;;21.18;67.45;100337.31;5046613;28;20053;-59
2021/09/02 04:17:27;;;;;;;18.95;9.45;;;;;;;21.23;67.63;100352.13;5034482;28;20049;-57
2021/09/02 04:19:54;;;;;;;16.02;9.43;;;;;;;21.23;67.24;100352.13;5035461;28;20102;-57
2021/09/02 04:22:21;;;;;;;12.95;8.52;;;;;;;21.15;67.09;100343.72;5052752;28;20519;-58
2021/09/02 04:24:47;;;;;;;15.77;7.22;;;;;;;21.22;67.23;100363.81;5033831;28;20761;-57
2021/09/02 04:27:17;;;;;;;17.42;8.23;;;;;;;21.17;67.23;100352.72;5036999;28;20063;-57
2021/09/02 04:29:44;;;;;;;14.32;7.53;;;;;;;21.02;67.07;100363.59;5045085;28;20132;-58
2021/09/02 04:32:11;;;;;;;13.10;7.88;;;;;;;20.93;66.94;100336.53;5034827;28;20042;-60
2021/09/02 04:34:39;;;;;;;15.00;7.80;;;;;;;20.99;67.03;100350.13;5040968;28;20461;-59
2021/09/02 04:37:06;;;;;;;11.73;6.70;;;;;;;21.08;66.82;100355.66;5048527;28;20504;-61
2021/09/02 04:39:33;;;;;;;14.30;7.13;;;;;;;20.98;66.77;100342.78;5038517;28;20133;-61
2021/09/02 04:42:00;;;;;;;13.98;7.60;;;;;;;20.99;66.89;100364.31;5036918;28;20139;-60
2021/09/02 04:44:27;;;;;;;12.88;7.20;;;;;;;21.10;66.95;100361.84;5049967;28;20127;-60
2021/09/02 04:46:54;;;;;;;19.58;7.68;;;;;;;21.19;66.37;100361.69;5039310;28;20136;-60
2021/09/02 04:49:21;;;;;;;14.88;7.70;;;;;;;20.99;66.66;100364.31;5042793;28;20124;-60
2021/09/02 04:51:48;;;;;;;17.17;7.30;;;;;;;20.83;66.72;100364.19;5041445;28;20095;-59
2021/09/02 04:54:15;;;;;;;22.27;8.70;;;;;;;20.57;66.98;100343.84;5034196;28;20045;-58
2021/09/02 04:56:42;;;;;;;19.48;8.05;;;;;;;20.47;67.45;100364.13;5030003;28;20069;-58
2021/09/02 04:59:08;;;;;;;13.43;7.03;;;;;;;20.40;67.81;100370.38;5040394;28;20564;-58
2021/09/02 05:01:35;;;;;;;15.82;8.05;;;;;;;20.32;68.50;100368.47;5047097;28;20144;-58
2021/09/02 05:04:03;;;;;;;15.93;8.00;;;;;;;20.25;68.36;100374.72;5034598;28;20401;-58
2021/09/02 05:06:30;;;;;;;17.23;8.52;;;;;;;19.96;68.87;100353.00;5039600;28;20529;-60
2021/09/02 05:08:56;;;;;;;14.00;8.60;;;;;;;20.22;68.73;100383.94;5036530;28;20075;-62
2021/09/02 05:11:23;;;;;;;19.55;9.05;;;;;;;20.15;69.00;100380.00;5032884;28;20216;-59
2021/09/02 05:13:50;;;;;;;18.30;9.60;;;;;;;20.06;68.90;100378.06;5039846;28;20132;-58
2021/09/02 05:16:17;;;;;;;15.50;8.00;;;;;;;19.99;69.24;100372.16;5044503;28;20060;-59
2021/09/02 05:18:44;;;;;;;17.95;8.80;;;;;;;19.98;69.16;100376.16;5037706;28;20068;-59
2021/09/02 05:21:11;;;;;;;16.05;7.55;;;;;;;19.96;69.33;100375.69;5037465;28;20551;-58
2021/09/02 05:23:37;;;;;;;17.48;9.10;;;;;;;19.95;69.50;100378.88;5040473;28;20516;-59
2021/09/02 05:26:04;;;;;;;16.98;8.35;;;;;;;19.90;69.33;100374.25;5045943;28;20073;-60
2021/09/02 05:28:31;;;;;;;18.65;8.55;;;;;;;19.99;69.12;100389.16;5041920;28;20036;-59
2021/09/02 05:30:58;;;;;;;16.73;9.57;;;;;;;19.99;69.10;100394.81;5038018;28;20091;-59
2021/09/02 05:33:26;;;;;;;16.17;7.80;;;;;;;19.99;69.32;100389.16;5039966;28;20525;-62
2021/09/02 05:35:53;;;;;;;17.45;8.43;;;;;;;20.04;69.10;100397.47;5036872;28;20053;-62
2021/09/02 05:38:19;;;;;;;15.70;8.73;;;;;;;20.02;69.28;100396.16;5036268;28;20132;-61
2021/09/02 05:40:46;;;;;;;16.70;8.23;;;;;;;20.00;69.42;100396.50;5031587;28;20421;-62
2021/09/02 05:43:13;;;;;;;17.33;9.00;;;;;;;20.07;69.19;100401.63;5038919;28;20496;-62
2021/09/02 05:45:40;;;;;;;14.80;8.48;;;;;;;20.02;69.14;100391.28;5032546;28;20132;-62
2021/09/02 05:48:07;;;;;;;15.38;9.07;;;;;;;20.08;69.22;100404.09;5033933;28;20136;-62
2021/09/02 05:50:34;;;;;;;20.15;8.57;;;;;;;20.15;69.10;100392.19;5041805;28;20042;-62
2021/09/02 05:53:01;;;;;;;18.77;8.35;;;;;;;20.17;69.27;100408.81;5032437;28;20075;-62
2021/09/02 05:55:28;;;;;;;18.05;9.52;;;;;;;20.17;69.21;100403.16;5042277;28;20127;-62
2021/09/02 05:57:55;;;;;;;22.60;10.20;;;;;;;19.91;69.15;100358.09;5041237;28;20483;-62
2021/09/02 06:00:21;;;;;;;15.35;8.18;;;;;;;20.08;69.41;100404.09;5042792;28;21790;-62
2021/09/02 06:02:48;;;;;;;27.30;10.15;;;;;;;20.08;69.25;100408.94;5038190;28;20049;-62
2021/09/02 06:05:15;;;;;;;18.38;8.43;;;;;;;19.85;69.12;100388.63;5046412;28;20099;-62
2021/09/02 06:07:42;;;;;;;19.50;9.52;;;;;;;19.84;69.72;100398.31;5045097;28;20136;-63
2021/09/02 06:10:09;;;;;;;17.95;9.20;;;;;;;19.80;69.68;100406.69;5052601;28;20180;-64
2021/09/02 06:12:37;;;;;;;18.55;9.85;;;;;;;19.73;69.86;100408.41;5034239;28;20441;-63
2021/09/02 06:15:09;;;;;;;18.52;9.52;;;;;;;19.71;69.71;100405.91;5049500;28;20052;-63
2021/09/02 06:17:37;;;;;;;23.50;8.80;;;;;;;19.64;69.42;100400.81;5036549;28;20131;-63
2021/09/02 06:20:05;;;;;;;19.08;9.57;;;;;;;19.62;69.77;100407.94;5039327;28;20136;-59
2021/09/02 06:22:33;;;;;;;24.20;9.80;;;;;;;19.62;69.73;100411.63;5037012;28;20127;-61
2021/09/02 06:25:00;;;;;;;17.38;9.48;;;;;;;19.60;69.76;100402.63;5042373;28;20100;-61
2021/09/02 06:27:28;;;;;;;18.23;9.05;;;;;;;19.59;69.89;100420.81;5039346;28;20552;-59
2021/09/02 06:29:55;;;;;;;14.95;8.73;;;;;;;19.55;70.07;100419.00;5035924;28;20140;-60
2021/09/02 06:32:22;;;;;;;26.80;9.60;;;;;;;19.55;69.76;100419.81;5037771;28;20137;-61
2021/09/02 06:34:49;;;;;;;19.45;9.35;;;;;;;19.49;70.04;100412.72;5035832;28;20073;-60
2021/09/02 06:37:16;;;;;;;15.82;7.90;;;;;;;19.63;69.87;100426.66;5040587;28;20128;-60
2021/09/02 06:39:42;;;;;;;16.27;9.70;;;;;;;19.50;69.54;100411.53;5044802;28;20076;-60
2021/09/02 06:42:09;;;;;;;18.27;9.38;;;;;;;19.58;69.97;100436.13;5039143;28;20124;-60
2021/09/02 06:44:36;;;;;;;17.77;8.45;;;;;;;19.60;69.81;100430.97;5047942;28;20065;-60
2021/09/02 06:47:03;;;;;;;16.10;8.65;;;;;;;19.64;69.74;100426.31;5046187;28;20059;-60
2021/09/02 06:49:30;;;;;;;17.77;9.27;;;;;;;19.64;69.69;100412.13;5036575;28;20072;-60
2021/09/02 06:51:57;;;;;;;21.77;9.23;;;;;;;19.72;69.57;100418.06;5053474;28;20132;-60
2021/09/02 06:54:24;;;;;;;13.70;8.35;;;;;;;19.82;69.61;100424.16;5045162;28;20159;-60
2021/09/02 06:56:51;;;;;;;17.27;8.57;;;;;;;19.94;69.69;100426.22;5042490;28;20132;-60
2021/09/02 06:59:19;;;;;;;15.02;8.27;;;;;;;19.98;69.45;100432.03;5050112;28;20531;-60
2021/09/02 07:01:47;;;;;;;19.08;7.72;;;;;;;19.97;69.56;100428.38;5040602;28;20077;-60
2021/09/02 07:04:15;;;;;;;15.25;9.02;;;;;;;20.09;69.09;100442.59;5043171;28;20045;-60
2021/09/02 07:06:42;;;;;;;17.45;8.70;;;;;;;19.96;69.09;100406.03;5042634;28;20069;-60
2021/09/02 07:09:09;;;;;;;20.85;7.90;;;;;;;20.10;68.91;100430.09;5047942;28;20140;-60
2021/09/02 07:11:35;;;;;;;16.77;7.70;;;;;;;20.22;68.83;100436.97;5035540;28;20050;-60
2021/09/02 07:14:04;;;;;;;18.50;7.72;;;;;;;20.24;68.61;100434.59;5034094;28;20132;-60
2021/09/02 07:16:31;;;;;;;16.27;8.10;;;;;;;20.18;68.83;100436.84;5036255;28;20085;-60
2021/09/02 07:18:58;;;;;;;14.52;7.28;;;;;;;20.17;68.33;100445.69;5038580;28;20080;-60
2021/09/02 07:21:24;;;;;;;14.25;7.28;;;;;;;20.12;68.13;100444.72;5035641;28;20048;-59
2021/09/02 07:23:52;;;;;;;14.50;7.75;;;;;;;20.17;68.18;100445.69;5035236;28;20053;-60
2021/09/02 07:26:19;;;;;;;15.45;7.80;;;;;;;20.11;68.09;100426.06;5044829;28;20557;-59
2021/09/02 07:28:46;;;;;;;12.95;7.32;;;;;;;20.19;68.36;100440.50;5044416;28;20075;-60
2021/09/02 07:31:13;;;;;;;16.38;6.75;;;;;;;20.35;68.14;100447.19;5039567;28;20159;-62
2021/09/02 07:33:40;;;;;;;15.82;7.93;;;;;;;20.42;68.10;100458.78;5045873;28;20046;-62
2021/09/02 07:36:07;;;;;;;15.52;6.80;;;;;;;20.41;67.80;100440.13;5034656;28;20516;-61
2021/09/02 07:38:33;;;;;;;15.65;8.45;;;;;;;20.59;67.58;100458.63;5040022;28;20124;-62
2021/09/02 07:41:00;;;;;;;15.98;8.55;;;;;;;20.73;67.57;100457.50;5038966;28;20076;-62
2021/09/02 07:43:29;;;;;;;20.00;8.23;;;;;;;20.85;67.21;100448.16;5033550;28;20115;-62
2021/09/02 07:45:56;;;;;;;15.32;7.13;;;;;;;20.92;67.19;100448.41;5036531;28;20501;-62
2021/09/02 07:48:23;;;;;;;15.50;8.63;;;;;;;20.83;67.03;100425.81;5051613;28;20045;-62
2021/09/02 07:50:50;;;;;;;13.68;7.90;;;;;;;21.40;66.32;100459.00;5045686;28;20497;-61
2021/09/02 07:53:18;;;;;;;19.02;8.48;;;;;;;21.92;65.37;100463.88;5044078;28;20441;-61
2021/09/02 07:55:45;;;;;;;19.95;9.77;;;;;;;22.24;64.51;100475.41;5032437;28;20125;-61
2021/09/02 07:58:12;;;;;;;23.00;8.75;;;;;;;22.57;64.35;100474.31;5042718;28;20080;-61
2021/09/02 08:00:39;;;;;;;14.88;9.32;;;;;;;23.06;63.42;100472.00;5039633;28;20088;-62
2021/09/02 08:03:06;;;;;;;16.77;9.73;;;;;;;23.40;62.66;100481.00;5042883;28;20106;-62
2021/09/02 08:05:37;;;;;;;17.30;9.45;;;;;;;23.74;61.31;100470.84;5045331;28;20045;-62
2021/09/02 08:08:04;;;;;;;14.27;8.57;;;;;;;24.03;60.85;100474.34;5037816;28;20091;-61
2021/09/02 08:10:32;;;;;;;15.10;9.18;;;;;;;24.17;59.88;100468.97;5040571;28;20041;-62
2021/09/02 08:13:00;;;;;;;15.63;9.50;;;;;;;24.51;59.17;100472.97;5034731;28;20053;-62
2021/09/02 08:15:27;;;;;;;18.55;9.25;;;;;;;24.90;58.79;100481.44;5046577;28;20088;-60
2021/09/02 08:17:58;;;;;;;16.95;8.57;;;;;;;25.20;58.13;100484.47;5050059;28;20120;-60
2021/09/02 08:20:25;;;;;;;14.80;8.82;;;;;;;25.39;57.00;100479.88;5048085;28;20135;-60
2021/09/02 08:22:52;;;;;;;15.38;7.82;;;;;;;25.60;57.02;100483.06;5042652;28;20049;-61
2021/09/02 08:25:20;;;;;;;16.30;8.48;;;;;;;25.87;55.80;100474.50;5039432;28;20073;-60
2021/09/02 08:27:47;;;;;;;12.90;8.32;;;;;;;26.20;55.39;100468.84;5048480;28;20472;-61
2021/09/02 08:30:16;;;;;;;14.55;8.10;;;;;;;26.56;54.70;100483.59;5036931;28;20118;-61
2021/09/02 08:32:47;;;;;;;12.52;7.38;;;;;;;26.76;54.39;100489.16;5033183;28;20129;-61
2021/09/02 08:35:18;;;;;;;10.00;6.70;;;;;;;26.98;53.12;100479.56;5033632;28;20582;-62
2021/09/02 08:37:45;;;;;;;14.50;6.38;;;;;;;27.21;52.92;100484.31;5038052;28;20049;-62
2021/09/02 08:40:15;;;;;;;12.65;8.02;;;;;;;27.40;52.34;100496.34;5041686;28;20128;-62
2021/09/02 08:42:43;;;;;;;11.60;7.03;;;;;;;27.71;51.74;100496.19;5037902;28;20085;-62
2021/09/02 08:45:10;;;;;;;12.65;7.10;;;;;;;27.84;50.91;100503.28;5036504;28;20073;-62
2021/09/02 08:47:37;;;;;;;12.02;7.57;;;;;;;28.03;50.42;100502.16;5034116;28;20120;-62
2021/09/02 08:50:06;;;;;;;13.13;8.02;;;;;;;28.40;49.92;100493.34;5031414;28;20136;-61
2021/09/02 08:52:33;;;;;;;11.30;6.00;;;;;;;28.64;49.21;100479.47;5042086;28;20070;-62
2021/09/02 08:55:02;;;;;;;9.60;6.18;;;;;;;28.99;48.66;100493.09;5037137;28;20050;-61
2021/09/02 08:57:30;;;;;;;10.65;6.78;;;;;;;29.21;48.33;100499.75;5042724;28;20128;-61
2021/09/02 08:59:58;;;;;;;11.65;6.20;;;;;;;29.40;47.63;100505.13;5030444;28;20072;-62
2021/09/02 09:02:26;;;;;;;12.47;5.57;;;;;;;29.90;46.79;100504.25;5046232;28;20559;-62
2021/09/02 09:05:11;;;;;;;8.90;5.18;;;;;;;30.04;46.74;100494.78;5038117;28;20298;-62
2021/09/02 09:07:40;;;;;;;7.20;4.85;;;;;;;30.31;45.15;100495.94;5036673;28;20041;-67
2021/09/02 09:10:19;;;;;;;9.48;5.38;;;;;;;30.18;46.02;100509.16;5045518;28;20143;-60
2021/09/02 09:12:55;;;;;;;10.93;5.32;;;;;;;29.72;45.87;100515.81;5033418;28;20537;-60
2021/09/02 09:15:25;;;;;;;9.52;5.50;;;;;;;29.42;46.02;100507.56;5037937;28;20079;-60
2021/09/02 09:17:54;;;;;;;6.65;4.93;;;;;;;29.51;45.79;100516.63;5038360;28;20468;-60
2021/09/02 09:20:24;;;;;;;9.77;5.63;;;;;;;29.40;45.50;100513.75;5034295;28;20123;-65
2021/09/02 09:22:57;;;;;;;11.10;5.15;;;;;;;29.16;45.91;100511.66;5035815;28;20564;-60
2021/09/02 09:25:26;;;;;;;13.27;5.20;;;;;;;28.88;46.09;100521.84;5035752;28;20072;-59
2021/09/02 09:27:56;;;;;;;;;;;;;;;28.37;48.37;100522.03;5047211;28;20083;-67
2021/09/02 09:30:25;;;;;;;9.13;4.45;;;;;;;28.46;46.75;100513.91;5044202;28;20417;-63
2021/09/02 09:32:58;;;;;;;10.30;4.35;;;;;;;28.55;46.82;100518.06;5068822;28;20087;-63
2021/09/02 09:35:27;;;;;;;5.40;3.78;;;;;;;28.69;46.08;100523.03;5036296;28;20041;-59
2021/09/02 09:38:18;;;;;;;;;;;;;;;28.23;47.79;100534.25;5047198;28;20095;-59
2021/09/02 09:40:50;;;;;;;10.07;4.80;;;;;;;28.07;46.97;100526.81;5033803;28;19931;-59
2021/09/02 09:43:22;;;;;;;11.25;5.47;;;;;;;27.79;47.42;100515.94;5036532;28;20145;-61
2021/09/02 09:45:55;;;;;;;9.07;5.88;;;;;;;27.75;47.10;100532.28;5035004;28;20076;-60
2021/09/02 09:48:24;;;;;;;12.43;5.85;;;;;;;27.79;47.54;100538.06;5044347;28;20048;-61
2021/09/02 09:51:06;;;;;;;8.75;5.25;;;;;;;28.41;46.78;100529.47;5039375;28;20479;-59
2021/09/02 09:53:33;;;;;;;17.27;5.43;;;;;;;28.78;46.28;100545.63;5036105;28;20055;-62
2021/09/02 09:56:00;;;;;;;9.48;4.68;;;;;;;29.08;45.67;100538.75;5035635;28;20056;-61
2021/09/02 09:58:27;;;;;;;7.95;5.13;;;;;;;29.21;45.05;100542.88;5046712;28;20515;-62
2021/09/02 10:01:03;;;;;;;8.98;4.65;;;;;;;28.98;44.80;100520.22;5035162;28;20068;-63
2021/09/02 10:03:31;;;;;;;9.10;5.30;;;;;;;29.22;44.80;100544.53;5037472;28;20058;-62
2021/09/02 10:06:10;;;;;;;11.27;4.90;;;;;;;29.52;44.06;100542.09;5041850;28;20045;-60
2021/09/02 10:08:40;;;;;;;10.77;5.17;;;;;;;29.58;44.19;100544.56;5043722;28;20132;-61
2021/09/02 10:11:08;;;;;;;12.00;5.40;;;;;;;29.51;43.56;100540.44;5040891;28;20160;-61
2021/09/02 10:13:36;;;;;;;13.05;5.82;;;;;;;29.43;43.89;100550.28;5039102;28;20052;-60
2021/09/02 10:16:03;;;;;;;10.35;5.10;;;;;;;29.37;43.88;100537.56;5052913;28;20524;-59
2021/09/02 10:18:33;;;;;;;9.57;5.10;;;;;;;29.29;43.72;100550.28;5045775;28;20468;-60
2021/09/02 10:21:06;;;;;;;10.30;5.30;;;;;;;28.99;43.96;100539.97;5048718;28;20053;-62
2021/09/02 10:23:33;;;;;;;7.65;4.43;;;;;;;28.71;44.72;100566.53;5059000;28;20132;-63
2021/09/02 10:26:01;;;;;;;7.85;4.50;;;;;;;28.34;44.84;100558.09;5046308;28;20436;-62
2021/09/02 10:28:28;;;;;;;14.30;5.13;;;;;;;27.93;45.58;100566.88;5039725;28;20075;-62
2021/09/02 10:30:58;;;;;;;10.93;4.78;;;;;;;27.55;46.09;100569.00;5044202;28;20168;-62
2021/09/02 10:33:40;;;;;;;10.63;5.78;;;;;;;26.96;46.95;100567.97;5040429;28;20045;-64
2021/09/02 10:36:10;;;;;;;10.20;5.30;;;;;;;26.74;47.43;100569.78;5050122;28;20072;-63
2021/09/02 10:38:38;;;;;;;;;;;;;;;26.38;48.18;100568.44;5041888;28;20128;-63
2021/09/02 10:41:05;;;;;;;8.82;4.75;;;;;;;26.29;48.42;100568.75;5042241;28;20015;-64
2021/09/02 10:43:48;;;;;;;12.32;5.43;;;;;;;26.09;49.12;100573.75;5052898;28;20099;-64
2021/09/02 10:46:35;;;;;;;8.85;4.15;;;;;;;26.04;49.43;100576.94;5046430;28;20068;-64
2021/09/02 10:49:21;;;;;;;10.23;4.68;;;;;;;25.94;49.60;100583.31;5041141;28;20511;-64
2021/09/02 10:51:50;;;;;;;10.15;4.32;;;;;;;25.96;49.63;100569.47;5037226;28;20092;-62
2021/09/02 10:54:23;;;;;;;7.35;4.10;;;;;;;25.98;49.50;100589.91;5039635;28;20445;-64
2021/09/02 10:56:56;;;;;;;10.68;4.93;;;;;;;25.81;50.11;100573.31;5038977;28;20075;-64
2021/09/02 10:59:42;;;;;;;14.02;4.43;;;;;;;25.76;50.51;100574.44;5044819;28;20552;-64
2021/09/02 11:02:18;;;;;;;10.82;4.10;;;;;;;25.85;50.18;100574.22;5039887;28;20045;-64
2021/09/02 11:04:47;;;;;;;8.70;3.92;;;;;;;26.01;50.16;100577.72;5034896;28;20080;-64
2021/09/02 11:07:14;;;;;;;10.73;5.45;;;;;;;26.11;50.19;100588.50;5042240;28;20076;-64
2021/09/02 11:09:42;;;;;;;7.47;3.58;;;;;;;26.12;50.23;100564.41;5036976;28;20143;-63
2021/09/02 11:12:12;;;;;;;12.90;5.05;;;;;;;26.25;49.99;100564.97;5052802;28;20140;-63
2021/09/02 11:14:40;;;;;;;10.63;4.80;;;;;;;26.26;50.50;100557.22;5042874;28;20045;-63
2021/09/02 11:17:08;;;;;;;6.32;4.03;;;;;;;26.30;50.43;100563.84;5041357;28;20103;-63
2021/09/02 11:19:37;;;;;;;9.52;4.43;;;;;;;26.29;50.29;100565.03;5042409;28;20479;-63
2021/09/02 11:22:11;;;;;;;6.35;4.05;;;;;;;26.23;50.37;100571.09;5037029;28;20133;-64